sensor_id;sensor_type;location;lat;lon;timestamp;pressure;altitude;pressure_sealevel;temperature;humidity
10992;BME280;5549;47.028;15.514;2022-08-02T00:00:23;96638.75;;;23.99;51.62
10992;BME280;5549;47.028;15.514;2022-08-02T00:02:53;96645.59;;;23.95;51.83
10992;BME280;5549;47.028;15.514;2022-08-02T00:05:23;96636.31;;;23.91;51.73
10992;BME280;5549;47.028;15.514;2022-08-02T00:07:51;96647.03;;;23.91;51.65
10992;BME280;5549;47.028;15.514;2022-08-02T00:10:21;96650.34;;;23.93;51.50
10992;BME280;5549;47.028;15.514;2022-08-02T00:12:48;96644.13;;;23.99;51.02
10992;BME280;5549;47.028;15.514;2022-08-02T00:15:18;96647.63;;;24.07;50.72
10992;BME280;5549;47.028;15.514;2022-08-02T00:17:49;96641.00;;;24.09;52.21
10992;BME280;5549;47.028;15.514;2022-08-02T00:20:20;96650.28;;;24.07;53.03
10992;BME280;5549;47.028;15.514;2022-08-02T00:22:50;96647.00;;;24.05;53.44
10992;BME280;5549;47.028;15.514;2022-08-02T00:25:18;96648.47;;;24.00;51.95
10992;BME280;5549;47.028;15.514;2022-08-02T00:27:46;96651.56;;;23.97;51.31
10992;BME280;5549;47.028;15.514;2022-08-02T00:30:13;96672.63;;;23.87;54.61
10992;BME280;5549;47.028;15.514;2022-08-02T00:32:43;96690.00;;;23.65;57.58
10992;BME280;5549;47.028;15.514;2022-08-02T00:35:13;96695.94;;;23.27;56.91
10992;BME280;5549;47.028;15.514;2022-08-02T00:37:42;96699.63;;;23.13;57.24
10992;BME280;5549;47.028;15.514;2022-08-02T00:40:11;96711.78;;;23.09;57.23
10992;BME280;5549;47.028;15.514;2022-08-02T00:42:41;96716.72;;;22.99;57.62
10992;BME280;5549;47.028;15.514;2022-08-02T00:45:11;96711.16;;;22.94;58.00
10992;BME280;5549;47.028;15.514;2022-08-02T00:47:41;96715.06;;;22.91;57.76
10992;BME280;5549;47.028;15.514;2022-08-02T00:50:11;96713.41;;;22.90;58.08
10992;BME280;5549;47.028;15.514;2022-08-02T00:52:39;96712.56;;;22.90;57.92
10992;BME280;5549;47.028;15.514;2022-08-02T00:55:09;96710.09;;;22.88;58.00
10992;BME280;5549;47.028;15.514;2022-08-02T00:57:38;96709.25;;;22.81;58.12
10992;BME280;5549;47.028;15.514;2022-08-02T01:00:09;96705.16;;;22.85;57.89
10992;BME280;5549;47.028;15.514;2022-08-02T01:02:37;96707.63;;;22.87;58.00
10992;BME280;5549;47.028;15.514;2022-08-02T01:05:08;96712.97;;;22.87;57.98
10992;BME280;5549;47.028;15.514;2022-08-02T01:07:36;96724.13;;;22.90;57.80
10992;BME280;5549;47.028;15.514;2022-08-02T01:10:09;96721.25;;;22.92;57.85
10992;BME280;5549;47.028;15.514;2022-08-02T01:12:40;96723.72;;;22.93;58.10
10992;BME280;5549;47.028;15.514;2022-08-02T01:15:10;96724.94;;;22.91;58.36
10992;BME280;5549;47.028;15.514;2022-08-02T01:17:47;96720.63;;;22.90;57.59
10992;BME280;5549;47.028;15.514;2022-08-02T01:20:33;96717.13;;;22.89;57.75
10992;BME280;5549;47.028;15.514;2022-08-02T01:23:24;96714.63;;;22.88;57.85
10992;BME280;5549;47.028;15.514;2022-08-02T01:26:38;96718.75;;;22.84;58.24
10992;BME280;5549;47.028;15.514;2022-08-02T01:29:16;96708.84;;;22.84;58.20
10992;BME280;5549;47.028;15.514;2022-08-02T01:31:56;96705.16;;;22.85;57.55
10992;BME280;5549;47.028;15.514;2022-08-02T01:34:34;96705.56;;;22.89;57.35
10992;BME280;5549;47.028;15.514;2022-08-02T01:37:09;96699.81;;;22.92;57.54
10992;BME280;5549;47.028;15.514;2022-08-02T01:39:43;96696.94;;;22.93;57.46
10992;BME280;5549;47.028;15.514;2022-08-02T01:42:14;96689.72;;;22.94;57.43
10992;BME280;5549;47.028;15.514;2022-08-02T01:44:45;96684.16;;;22.95;57.57
10992;BME280;5549;47.028;15.514;2022-08-02T01:47:17;96684.56;;;22.92;57.46
10992;BME280;5549;47.028;15.514;2022-08-02T01:49:52;96680.03;;;22.93;57.24
10992;BME280;5549;47.028;15.514;2022-08-02T01:52:24;96673.84;;;22.92;57.34
10992;BME280;5549;47.028;15.514;2022-08-02T01:55:00;96673.03;;;22.92;57.05
10992;BME280;5549;47.028;15.514;2022-08-02T01:57:34;96682.09;;;22.91;56.83
10992;BME280;5549;47.028;15.514;2022-08-02T02:00:08;96674.25;;;22.89;56.56
10992;BME280;5549;47.028;15.514;2022-08-02T02:02:42;96666.44;;;22.88;56.69
10992;BME280;5549;47.028;15.514;2022-08-02T02:05:13;96663.75;;;22.88;56.45
10992;BME280;5549;47.028;15.514;2022-08-02T02:07:47;96665.59;;;22.87;56.43
10992;BME280;5549;47.028;15.514;2022-08-02T02:10:24;96668.09;;;22.89;56.19
10992;BME280;5549;47.028;15.514;2022-08-02T02:12:57;96666.44;;;22.88;56.24
10992;BME280;5549;47.028;15.514;2022-08-02T02:15:31;96672.81;;;22.87;56.01
10992;BME280;5549;47.028;15.514;2022-08-02T02:18:02;96683.31;;;22.88;56.04
10992;BME280;5549;47.028;15.514;2022-08-02T02:20:36;96676.31;;;22.87;56.21
10992;BME280;5549;47.028;15.514;2022-08-02T02:23:04;96684.56;;;22.86;56.38
10992;BME280;5549;47.028;15.514;2022-08-02T02:25:32;96675.91;;;22.84;56.80
10992;BME280;5549;47.028;15.514;2022-08-02T02:28:04;96681.47;;;22.82;56.91
10992;BME280;5549;47.028;15.514;2022-08-02T02:30:38;96695.66;;;22.83;57.19
10992;BME280;5549;47.028;15.514;2022-08-02T02:33:07;96686.00;;;22.82;57.29
10992;BME280;5549;47.028;15.514;2022-08-02T02:35:36;96683.69;;;22.79;57.40
10992;BME280;5549;47.028;15.514;2022-08-02T02:38:11;96683.69;;;22.79;57.13
10992;BME280;5549;47.028;15.514;2022-08-02T02:40:43;96680.00;;;22.80;57.16
10992;BME280;5549;47.028;15.514;2022-08-02T02:43:12;96689.44;;;22.76;57.37
10992;BME280;5549;47.028;15.514;2022-08-02T02:45:43;96688.19;;;22.71;58.05
10992;BME280;5549;47.028;15.514;2022-08-02T02:48:14;96682.41;;;22.68;58.01
10992;BME280;5549;47.028;15.514;2022-08-02T02:50:42;96682.00;;;22.64;58.50
10992;BME280;5549;47.028;15.514;2022-08-02T02:53:13;96686.94;;;22.61;58.90
10992;BME280;5549;47.028;15.514;2022-08-02T02:55:43;96684.66;;;22.58;58.96
10992;BME280;5549;47.028;15.514;2022-08-02T02:58:13;96671.47;;;22.56;58.68
10992;BME280;5549;47.028;15.514;2022-08-02T03:00:43;96679.88;;;22.53;58.66
10992;BME280;5549;47.028;15.514;2022-08-02T03:03:32;96669.16;;;22.53;58.37
10992;BME280;5549;47.028;15.514;2022-08-02T03:06:00;96676.19;;;22.54;58.45
10992;BME280;5549;47.028;15.514;2022-08-02T03:08:29;96675.19;;;22.55;58.29
10992;BME280;5549;47.028;15.514;2022-08-02T03:10:57;96673.69;;;22.53;58.59
10992;BME280;5549;47.028;15.514;2022-08-02T03:13:28;96665.66;;;22.53;58.90
10992;BME280;5549;47.028;15.514;2022-08-02T03:15:57;96671.22;;;22.51;58.95
10992;BME280;5549;47.028;15.514;2022-08-02T03:18:30;96665.88;;;22.51;59.01
10992;BME280;5549;47.028;15.514;2022-08-02T03:21:01;96661.75;;;22.49;59.11
10992;BME280;5549;47.028;15.514;2022-08-02T03:23:29;96667.28;;;22.47;59.56
10992;BME280;5549;47.028;15.514;2022-08-02T03:26:00;96667.28;;;22.47;59.64
10992;BME280;5549;47.028;15.514;2022-08-02T03:28:28;96658.44;;;22.47;59.84
10992;BME280;5549;47.028;15.514;2022-08-02T03:31:00;96665.66;;;22.46;60.15
10992;BME280;5549;47.028;15.514;2022-08-02T03:33:31;96659.88;;;22.42;60.68
10992;BME280;5549;47.028;15.514;2022-08-02T03:36:03;96655.53;;;22.41;60.73
10992;BME280;5549;47.028;15.514;2022-08-02T03:38:33;96658.81;;;22.37;60.76
10992;BME280;5549;47.028;15.514;2022-08-02T03:41:05;96658.38;;;22.27;61.24
10992;BME280;5549;47.028;15.514;2022-08-02T03:43:35;96661.25;;;22.25;61.15
10992;BME280;5549;47.028;15.514;2022-08-02T03:46:07;96660.00;;;22.21;61.29
10992;BME280;5549;47.028;15.514;2022-08-02T03:48:37;96662.44;;;22.16;61.60
10992;BME280;5549;47.028;15.514;2022-08-02T03:51:08;96663.66;;;22.14;61.43
10992;BME280;5549;47.028;15.514;2022-08-02T03:53:38;96670.03;;;22.13;61.94
10992;BME280;5549;47.028;15.514;2022-08-02T03:56:08;96669.59;;;22.09;62.31
10992;BME280;5549;47.028;15.514;2022-08-02T03:58:36;96664.03;;;22.04;62.85
10992;BME280;5549;47.028;15.514;2022-08-02T04:01:05;96672.41;;;22.01;63.49
10992;BME280;5549;47.028;15.514;2022-08-02T04:03:35;96676.94;;;22.00;63.25
10992;BME280;5549;47.028;15.514;2022-08-02T04:06:05;96676.69;;;21.95;63.42
10992;BME280;5549;47.028;15.514;2022-08-02T04:08:32;96676.28;;;21.92;63.73
10992;BME280;5549;47.028;15.514;2022-08-02T04:11:00;96675.59;;;21.83;64.51
10992;BME280;5549;47.028;15.514;2022-08-02T04:13:46;96684.00;;;21.80;64.69
10992;BME280;5549;47.028;15.514;2022-08-02T04:16:20;96677.66;;;21.81;64.61
10992;BME280;5549;47.028;15.514;2022-08-02T04:18:55;96682.59;;;21.84;64.46
10992;BME280;5549;47.028;15.514;2022-08-02T04:21:30;96680.34;;;21.88;64.51
10992;BME280;5549;47.028;15.514;2022-08-02T04:24:01;96687.78;;;21.92;64.57
10992;BME280;5549;47.028;15.514;2022-08-02T04:26:34;96699.75;;;21.96;64.29
10992;BME280;5549;47.028;15.514;2022-08-02T04:29:03;96699.97;;;22.01;64.45
10992;BME280;5549;47.028;15.514;2022-08-02T04:31:33;96699.97;;;22.01;65.03
10992;BME280;5549;47.028;15.514;2022-08-02T04:34:02;96697.31;;;22.01;65.26
10992;BME280;5549;47.028;15.514;2022-08-02T04:36:32;96706.00;;;22.03;65.26
10992;BME280;5549;47.028;15.514;2022-08-02T04:39:02;96701.91;;;22.07;65.16
10992;BME280;5549;47.028;15.514;2022-08-02T04:41:38;96701.50;;;22.11;65.04
10992;BME280;5549;47.028;15.514;2022-08-02T04:44:08;96710.59;;;22.16;64.64
10992;BME280;5549;47.028;15.514;2022-08-02T04:46:37;96711.00;;;22.20;64.82
10992;BME280;5549;47.028;15.514;2022-08-02T04:49:06;96712.63;;;22.14;65.01
10992;BME280;5549;47.028;15.514;2022-08-02T04:51:36;96719.00;;;22.13;64.77
10992;BME280;5549;47.028;15.514;2022-08-02T04:54:06;96716.75;;;22.17;64.81
10992;BME280;5549;47.028;15.514;2022-08-02T04:56:34;96711.84;;;22.20;64.97
10992;BME280;5549;47.028;15.514;2022-08-02T04:59:05;96719.47;;;22.23;65.07
10992;BME280;5549;47.028;15.514;2022-08-02T05:01:34;96714.94;;;22.24;64.49
10992;BME280;5549;47.028;15.514;2022-08-02T05:04:05;96714.75;;;22.25;64.76
10992;BME280;5549;47.028;15.514;2022-08-02T05:06:33;96717.00;;;22.22;64.70
10992;BME280;5549;47.028;15.514;2022-08-02T05:09:00;96717.19;;;22.20;65.39
10992;BME280;5549;47.028;15.514;2022-08-02T05:11:29;96720.06;;;22.19;65.51
10992;BME280;5549;47.028;15.514;2022-08-02T05:13:56;96722.16;;;22.23;65.61
10992;BME280;5549;47.028;15.514;2022-08-02T05:16:27;96715.19;;;22.29;65.46
10992;BME280;5549;47.028;15.514;2022-08-02T05:18:54;96725.88;;;22.29;64.11
10992;BME280;5549;47.028;15.514;2022-08-02T05:21:25;96725.84;;;22.22;64.34
10992;BME280;5549;47.028;15.514;2022-08-02T05:23:53;96722.56;;;22.27;64.11
10992;BME280;5549;47.028;15.514;2022-08-02T05:26:21;96727.50;;;22.23;62.98
10992;BME280;5549;47.028;15.514;2022-08-02T05:28:49;96725.66;;;22.24;65.17
10992;BME280;5549;47.028;15.514;2022-08-02T05:31:16;96724.84;;;22.30;64.86
10992;BME280;5549;47.028;15.514;2022-08-02T05:33:47;96724.69;;;22.38;64.57
10992;BME280;5549;47.028;15.514;2022-08-02T05:36:15;96730.91;;;22.45;63.76
10992;BME280;5549;47.028;15.514;2022-08-02T05:38:47;96724.31;;;22.48;63.25
10992;BME280;5549;47.028;15.514;2022-08-02T05:41:18;96728.66;;;22.49;64.81
10992;BME280;5549;47.028;15.514;2022-08-02T05:43:46;96729.06;;;22.52;64.20
10992;BME280;5549;47.028;15.514;2022-08-02T05:46:16;96732.00;;;22.57;62.62
10992;BME280;5549;47.028;15.514;2022-08-02T05:48:46;96729.13;;;22.59;61.76
10992;BME280;5549;47.028;15.514;2022-08-02T05:51:25;96728.09;;;22.60;61.34
10992;BME280;5549;47.028;15.514;2022-08-02T05:54:08;96729.75;;;22.61;61.81
10992;BME280;5549;47.028;15.514;2022-08-02T05:56:45;96726.06;;;22.68;62.00
10992;BME280;5549;47.028;15.514;2022-08-02T05:59:28;96721.81;;;22.81;61.77
10992;BME280;5549;47.028;15.514;2022-08-02T06:02:06;96727.63;;;22.91;60.63
10992;BME280;5549;47.028;15.514;2022-08-02T06:04:51;96734.44;;;23.00;60.15
10992;BME280;5549;47.028;15.514;2022-08-02T06:07:22;96734.47;;;23.13;60.21
10992;BME280;5549;47.028;15.514;2022-08-02T06:09:54;96741.28;;;23.29;59.88
10992;BME280;5549;47.028;15.514;2022-08-02T06:12:28;96740.69;;;23.47;59.45
10992;BME280;5549;47.028;15.514;2022-08-02T06:14:58;96741.97;;;23.64;58.92
10992;BME280;5549;47.028;15.514;2022-08-02T06:17:26;96741.97;;;23.77;58.54
10992;BME280;5549;47.028;15.514;2022-08-02T06:19:56;96755.56;;;23.89;58.57
10992;BME280;5549;47.028;15.514;2022-08-02T06:22:26;96757.22;;;23.96;58.58
10992;BME280;5549;47.028;15.514;2022-08-02T06:24:58;96767.13;;;24.03;57.56
10992;BME280;5549;47.028;15.514;2022-08-02T06:27:27;96767.31;;;24.08;57.66
10992;BME280;5549;47.028;15.514;2022-08-02T06:29:57;96769.38;;;24.12;57.35
10992;BME280;5549;47.028;15.514;2022-08-02T06:32:26;96767.50;;;24.19;57.10
10992;BME280;5549;47.028;15.514;2022-08-02T06:34:54;96772.03;;;24.25;57.04
10992;BME280;5549;47.028;15.514;2022-08-02T06:37:28;96782.81;;;24.32;56.66
10992;BME280;5549;47.028;15.514;2022-08-02T06:40:10;96780.72;;;24.41;56.87
10992;BME280;5549;47.028;15.514;2022-08-02T06:42:48;96778.66;;;24.49;56.76
10992;BME280;5549;47.028;15.514;2022-08-02T06:45:16;96775.31;;;24.60;56.86
10992;BME280;5549;47.028;15.514;2022-08-02T06:47:46;96772.53;;;24.80;56.89
10992;BME280;5549;47.028;15.514;2022-08-02T06:50:14;96779.28;;;25.03;55.12
10992;BME280;5549;47.028;15.514;2022-08-02T06:52:44;96780.19;;;25.28;55.56
10992;BME280;5549;47.028;15.514;2022-08-02T06:55:21;96777.03;;;25.38;53.47
10992;BME280;5549;47.028;15.514;2022-08-02T06:57:49;96778.97;;;25.55;52.79
10992;BME280;5549;47.028;15.514;2022-08-02T07:00:17;96770.63;;;25.70;52.07
10992;BME280;5549;47.028;15.514;2022-08-02T07:02:44;96770.06;;;25.86;51.89
10992;BME280;5549;47.028;15.514;2022-08-02T07:05:12;96779.03;;;26.05;52.02
10992;BME280;5549;47.028;15.514;2022-08-02T07:07:39;96782.44;;;26.19;51.52
10992;BME280;5549;47.028;15.514;2022-08-02T07:10:08;96785.84;;;26.33;51.90
10992;BME280;5549;47.028;15.514;2022-08-02T07:12:37;96789.38;;;26.33;51.40
10992;BME280;5549;47.028;15.514;2022-08-02T07:15:08;96787.88;;;26.37;50.92
10992;BME280;5549;47.028;15.514;2022-08-02T07:17:37;96789.19;;;26.28;49.22
10992;BME280;5549;47.028;15.514;2022-08-02T07:20:07;96784.59;;;26.35;50.11
10992;BME280;5549;47.028;15.514;2022-08-02T07:22:36;96784.88;;;26.45;49.23
10992;BME280;5549;47.028;15.514;2022-08-02T07:25:07;96775.16;;;26.63;50.21
10992;BME280;5549;47.028;15.514;2022-08-02T07:27:36;96779.34;;;26.77;47.22
10992;BME280;5549;47.028;15.514;2022-08-02T07:30:06;96775.38;;;26.79;46.69
10992;BME280;5549;47.028;15.514;2022-08-02T07:32:36;96778.72;;;27.11;46.77
10992;BME280;5549;47.028;15.514;2022-08-02T07:35:05;96774.06;;;27.19;47.72
10992;BME280;5549;47.028;15.514;2022-08-02T07:37:35;96772.78;;;27.51;46.08
10992;BME280;5549;47.028;15.514;2022-08-02T07:40:08;96777.81;;;27.77;46.75
10992;BME280;5549;47.028;15.514;2022-08-02T07:42:40;96780.53;;;27.77;45.44
10992;BME280;5549;47.028;15.514;2022-08-02T07:45:09;96774.88;;;27.49;44.25
10992;BME280;5549;47.028;15.514;2022-08-02T07:47:40;96773.28;;;27.30;45.80
10992;BME280;5549;47.028;15.514;2022-08-02T07:50:09;96782.78;;;26.84;44.32
10992;BME280;5549;47.028;15.514;2022-08-02T07:52:38;96786.97;;;26.43;44.52
10992;BME280;5549;47.028;15.514;2022-08-02T07:55:09;96788.31;;;26.34;44.99
10992;BME280;5549;47.028;15.514;2022-08-02T07:57:42;96782.22;;;26.20;44.91
10992;BME280;5549;47.028;15.514;2022-08-02T08:00:14;96793.47;;;25.86;46.43
10992;BME280;5549;47.028;15.514;2022-08-02T08:02:43;96792.03;;;25.83;44.60
10992;BME280;5549;47.028;15.514;2022-08-02T08:05:11;96791.91;;;26.03;45.62
10992;BME280;5549;47.028;15.514;2022-08-02T08:07:39;96799.47;;;26.38;45.23
10992;BME280;5549;47.028;15.514;2022-08-02T08:10:08;96792.59;;;26.60;45.73
10992;BME280;5549;47.028;15.514;2022-08-02T08:12:40;96784.88;;;26.82;43.62
10992;BME280;5549;47.028;15.514;2022-08-02T08:15:10;96774.81;;;27.26;44.63
10992;BME280;5549;47.028;15.514;2022-08-02T08:17:38;96783.91;;;27.43;44.66
10992;BME280;5549;47.028;15.514;2022-08-02T08:20:08;96775.72;;;27.49;43.54
10992;BME280;5549;47.028;15.514;2022-08-02T08:22:38;96777.78;;;27.66;43.46
10992;BME280;5549;47.028;15.514;2022-08-02T08:25:06;96774.66;;;27.81;42.00
10992;BME280;5549;47.028;15.514;2022-08-02T08:27:34;96779.47;;;27.78;43.24
10992;BME280;5549;47.028;15.514;2022-08-02T08:30:04;96784.78;;;28.08;44.41
10992;BME280;5549;47.028;15.514;2022-08-02T08:32:35;96783.50;;;28.11;42.35
10992;BME280;5549;47.028;15.514;2022-08-02T08:35:06;96787.63;;;28.25;42.13
10992;BME280;5549;47.028;15.514;2022-08-02T08:37:34;96792.44;;;28.58;41.90
10992;BME280;5549;47.028;15.514;2022-08-02T08:40:05;96799.00;;;28.86;42.42
10992;BME280;5549;47.028;15.514;2022-08-02T08:42:37;96793.06;;;29.00;40.67
10992;BME280;5549;47.028;15.514;2022-08-02T08:45:09;96793.97;;;29.18;41.35
10992;BME280;5549;47.028;15.514;2022-08-02T08:47:40;96798.88;;;29.21;40.02
10992;BME280;5549;47.028;15.514;2022-08-02T08:50:14;96792.88;;;28.90;40.66
10992;BME280;5549;47.028;15.514;2022-08-02T08:52:49;96798.28;;;28.67;42.84
10992;BME280;5549;47.028;15.514;2022-08-02T08:55:22;96797.34;;;28.73;41.17
10992;BME280;5549;47.028;15.514;2022-08-02T08:57:50;96802.41;;;29.21;40.32
10992;BME280;5549;47.028;15.514;2022-08-02T09:00:22;96798.84;;;28.92;39.91
10992;BME280;5549;47.028;15.514;2022-08-02T09:02:51;96801.53;;;29.04;40.16
10992;BME280;5549;47.028;15.514;2022-08-02T09:05:21;96804.00;;;29.34;40.98
10992;BME280;5549;47.028;15.514;2022-08-02T09:07:51;96805.50;;;29.42;39.84
10992;BME280;5549;47.028;15.514;2022-08-02T09:10:37;96797.41;;;29.53;40.74
10992;BME280;5549;47.028;15.514;2022-08-02T09:13:13;96811.81;;;29.19;39.68
10992;BME280;5549;47.028;15.514;2022-08-02T09:15:51;96819.19;;;29.35;40.45
10992;BME280;5549;47.028;15.514;2022-08-02T09:18:29;96812.09;;;29.46;39.17
10992;BME280;5549;47.028;15.514;2022-08-02T09:21:01;96811.00;;;29.58;40.06
10992;BME280;5549;47.028;15.514;2022-08-02T09:23:34;96812.72;;;28.96;38.42
10992;BME280;5549;47.028;15.514;2022-08-02T09:26:05;96816.66;;;29.17;38.98
10992;BME280;5549;47.028;15.514;2022-08-02T09:28:38;96810.00;;;29.36;40.16
10992;BME280;5549;47.028;15.514;2022-08-02T09:31:11;96815.50;;;29.53;40.00
10992;BME280;5549;47.028;15.514;2022-08-02T09:33:44;96817.44;;;29.29;39.04
10992;BME280;5549;47.028;15.514;2022-08-02T09:36:16;96823.44;;;29.31;39.12
10992;BME280;5549;47.028;15.514;2022-08-02T09:38:54;96819.53;;;29.50;39.46
10992;BME280;5549;47.028;15.514;2022-08-02T09:41:27;96812.56;;;29.54;36.73
10992;BME280;5549;47.028;15.514;2022-08-02T09:43:58;96817.75;;;29.73;37.56
10992;BME280;5549;47.028;15.514;2022-08-02T09:46:29;96812.66;;;30.05;38.74
10992;BME280;5549;47.028;15.514;2022-08-02T09:48:59;96813.75;;;29.92;37.13
10992;BME280;5549;47.028;15.514;2022-08-02T09:51:33;96808.63;;;30.07;37.48
10992;BME280;5549;47.028;15.514;2022-08-02T09:54:04;96813.59;;;29.98;40.37
10992;BME280;5549;47.028;15.514;2022-08-02T09:56:43;96803.34;;;30.51;37.94
10992;BME280;5549;47.028;15.514;2022-08-02T09:59:12;96810.28;;;30.08;36.42
10992;BME280;5549;47.028;15.514;2022-08-02T10:01:46;96809.66;;;29.73;36.81
10992;BME280;5549;47.028;15.514;2022-08-02T10:04:20;96799.88;;;29.43;37.03
10992;BME280;5549;47.028;15.514;2022-08-02T10:06:49;96802.06;;;30.03;36.93
10992;BME280;5549;47.028;15.514;2022-08-02T10:09:17;96794.16;;;29.85;36.59
10992;BME280;5549;47.028;15.514;2022-08-02T10:11:45;96804.19;;;30.01;37.88
10992;BME280;5549;47.028;15.514;2022-08-02T10:14:15;96805.66;;;29.92;37.61
10992;BME280;5549;47.028;15.514;2022-08-02T10:16:50;96809.47;;;29.62;37.02
10992;BME280;5549;47.028;15.514;2022-08-02T10:19:19;96807.41;;;29.53;37.04
10992;BME280;5549;47.028;15.514;2022-08-02T10:21:57;96809.94;;;29.59;37.38
10992;BME280;5549;47.028;15.514;2022-08-02T10:24:29;96803.41;;;29.44;38.96
10992;BME280;5549;47.028;15.514;2022-08-02T10:26:58;96801.88;;;29.36;37.37
10992;BME280;5549;47.028;15.514;2022-08-02T10:29:35;96798.16;;;29.25;37.86
10992;BME280;5549;47.028;15.514;2022-08-02T10:32:09;96807.47;;;29.18;37.83
10992;BME280;5549;47.028;15.514;2022-08-02T10:34:45;96803.13;;;29.17;37.49
10992;BME280;5549;47.028;15.514;2022-08-02T10:37:17;96796.84;;;29.28;37.06
10992;BME280;5549;47.028;15.514;2022-08-02T10:39:45;96796.63;;;29.29;37.23
10992;BME280;5549;47.028;15.514;2022-08-02T10:42:43;96799.84;;;29.55;37.91
10992;BME280;5549;47.028;15.514;2022-08-02T10:45:17;96793.91;;;29.86;38.86
10992;BME280;5549;47.028;15.514;2022-08-02T10:48:01;96795.66;;;30.09;39.38
10992;BME280;5549;47.028;15.514;2022-08-02T10:50:52;96800.22;;;29.92;39.03
10992;BME280;5549;47.028;15.514;2022-08-02T10:53:30;96803.75;;;29.76;39.14
10992;BME280;5549;47.028;15.514;2022-08-02T10:56:04;96802.06;;;29.58;40.59
10992;BME280;5549;47.028;15.514;2022-08-02T10:58:33;96808.34;;;29.47;41.80
10992;BME280;5549;47.028;15.514;2022-08-02T11:01:05;96808.75;;;29.27;40.61
10992;BME280;5549;47.028;15.514;2022-08-02T11:03:40;96812.69;;;29.36;41.29
10992;BME280;5549;47.028;15.514;2022-08-02T11:06:13;96813.66;;;29.30;40.53
10992;BME280;5549;47.028;15.514;2022-08-02T11:08:43;96823.59;;;29.13;41.11
10992;BME280;5549;47.028;15.514;2022-08-02T11:11:18;96828.81;;;29.02;40.69
10992;BME280;5549;47.028;15.514;2022-08-02T11:14:01;96820.59;;;28.74;42.62
10992;BME280;5549;47.028;15.514;2022-08-02T11:17:04;96825.09;;;28.33;43.11
10992;BME280;5549;47.028;15.514;2022-08-02T11:19:34;96825.22;;;28.27;43.35
10992;BME280;5549;47.028;15.514;2022-08-02T11:22:04;96828.22;;;28.19;43.91
10992;BME280;5549;47.028;15.514;2022-08-02T11:24:35;96826.69;;;28.11;44.41
10992;BME280;5549;47.028;15.514;2022-08-02T11:27:05;96825.53;;;28.07;45.11
10992;BME280;5549;47.028;15.514;2022-08-02T11:29:37;96835.72;;;28.05;45.52
10992;BME280;5549;47.028;15.514;2022-08-02T11:32:07;96825.28;;;27.97;45.87
10992;BME280;5549;47.028;15.514;2022-08-02T11:37:04;96829.03;;;27.96;45.88
10992;BME280;5549;47.028;15.514;2022-08-02T11:39:32;96828.19;;;27.84;45.31
10992;BME280;5549;47.028;15.514;2022-08-02T11:42:03;96834.72;;;27.76;46.23
10992;BME280;5549;47.028;15.514;2022-08-02T11:44:40;96832.44;;;27.43;45.83
10992;BME280;5549;47.028;15.514;2022-08-02T11:47:08;96822.06;;;27.28;46.42
10992;BME280;5549;47.028;15.514;2022-08-02T11:49:37;96817.66;;;27.15;46.24
10992;BME280;5549;47.028;15.514;2022-08-02T11:52:07;96815.56;;;27.17;46.70
10992;BME280;5549;47.028;15.514;2022-08-02T11:54:37;96818.03;;;27.19;46.21
10992;BME280;5549;47.028;15.514;2022-08-02T11:57:14;96811.81;;;27.19;46.49
10992;BME280;5549;47.028;15.514;2022-08-02T11:59:44;96821.59;;;27.01;45.92
10992;BME280;5549;47.028;15.514;2022-08-02T12:02:12;96808.25;;;27.06;46.87
10992;BME280;5549;47.028;15.514;2022-08-02T12:04:41;96809.13;;;27.19;47.59
10992;BME280;5549;47.028;15.514;2022-08-02T12:07:09;96814.56;;;27.30;47.13
10992;BME280;5549;47.028;15.514;2022-08-02T12:09:37;96810.38;;;27.34;46.90
10992;BME280;5549;47.028;15.514;2022-08-02T12:12:05;96811.19;;;27.35;45.07
10992;BME280;5549;47.028;15.514;2022-08-02T12:14:42;96810.72;;;27.38;45.51
10992;BME280;5549;47.028;15.514;2022-08-02T12:17:10;96812.75;;;27.42;45.77
10992;BME280;5549;47.028;15.514;2022-08-02T12:19:56;96814.38;;;27.43;45.94
10992;BME280;5549;47.028;15.514;2022-08-02T12:22:26;96808.91;;;27.50;46.41
10992;BME280;5549;47.028;15.514;2022-08-02T12:24:56;96810.28;;;27.41;46.48
10992;BME280;5549;47.028;15.514;2022-08-02T12:27:32;96811.38;;;27.52;46.10
10992;BME280;5549;47.028;15.514;2022-08-02T12:30:07;96810.66;;;27.74;45.52
10992;BME280;5549;47.028;15.514;2022-08-02T12:32:36;96812.56;;;27.86;46.22
10992;BME280;5549;47.028;15.514;2022-08-02T12:35:10;96810.59;;;28.04;45.89
10992;BME280;5549;47.028;15.514;2022-08-02T12:37:40;96813.56;;;28.15;45.28
10992;BME280;5549;47.028;15.514;2022-08-02T12:40:20;96820.38;;;28.17;46.18
10992;BME280;5549;47.028;15.514;2022-08-02T12:42:49;96814.66;;;28.25;43.78
10992;BME280;5549;47.028;15.514;2022-08-02T12:45:17;96824.75;;;28.30;44.98
10992;BME280;5549;47.028;15.514;2022-08-02T12:47:51;96822.75;;;28.37;45.98
10992;BME280;5549;47.028;15.514;2022-08-02T12:50:25;96817.13;;;28.38;47.59
10992;BME280;5549;47.028;15.514;2022-08-02T12:53:05;96822.03;;;28.65;47.97
10992;BME280;5549;47.028;15.514;2022-08-02T12:55:33;96816.72;;;28.82;45.59
10992;BME280;5549;47.028;15.514;2022-08-02T12:58:06;96815.53;;;29.01;46.62
10992;BME280;5549;47.028;15.514;2022-08-02T13:00:37;96822.44;;;29.09;44.04
10992;BME280;5549;47.028;15.514;2022-08-02T13:03:07;96829.16;;;29.06;46.83
10992;BME280;5549;47.028;15.514;2022-08-02T13:05:36;96830.13;;;28.88;47.99
10992;BME280;5549;47.028;15.514;2022-08-02T13:08:04;96829.56;;;28.86;46.63
10992;BME280;5549;47.028;15.514;2022-08-02T13:10:32;96827.06;;;28.96;48.42
10992;BME280;5549;47.028;15.514;2022-08-02T13:13:02;96824.59;;;28.71;46.96
10992;BME280;5549;47.028;15.514;2022-08-02T13:15:29;96821.44;;;28.63;46.86
10992;BME280;5549;47.028;15.514;2022-08-02T13:17:59;96815.00;;;28.40;46.08
10992;BME280;5549;47.028;15.514;2022-08-02T13:20:28;96807.94;;;28.39;47.98
10992;BME280;5549;47.028;15.514;2022-08-02T13:22:57;96803.22;;;28.70;48.10
10992;BME280;5549;47.028;15.514;2022-08-02T13:25:27;96795.78;;;29.00;46.66